Time;durP1;ratioP1;P1;durP2;ratioP2;P2;SDS_P1;SDS_P2;PMS_P1;PMS_P2;Temp;Humidity;BMP_temperature;BMP_pressure;BME280_temperature;BME280_humidity;BME280_pressure;Samples;Min_cycle;Max_cycle;Signal;HPM_P1;HPM_P2
2022/04/06 00:00:00;;;;;;;50.47;16.75;;;;;;;8.45;96.81;100448.25;4700115;30;20139;-73
2022/04/06 00:02:25;;;;;;;57.15;17.38;;;;;;;8.49;96.83;100457.44;4699985;30;20317;-79
2022/04/06 00:04:51;;;;;;;66.60;19.85;;;;;;;8.56;96.74;100469.03;4699765;30;20502;-76
2022/04/06 00:07:16;;;;;;;55.25;18.25;;;;;;;8.53;96.77;100466.63;4683954;30;20041;-80
2022/04/06 00:09:42;;;;;;;64.38;17.92;;;;;;;8.55;96.67;100475.09;4699770;30;20091;-75
2022/04/06 00:12:07;;;;;;;55.58;18.13;;;;;;;8.56;96.77;100471.63;4699688;30;20069;-75
2022/04/06 00:14:34;;;;;;;49.35;16.63;;;;;;;8.54;96.50;100465.72;4699874;30;20037;-75
2022/04/06 00:17:04;;;;;;;65.07;17.55;;;;;;;8.52;96.71;100459.84;4700213;30;20043;-77
2022/04/06 00:19:30;;;;;;;59.38;18.35;;;;;;;8.35;96.49;100437.69;4699678;30;20040;-81
2022/04/06 00:21:55;;;;;;;55.15;17.10;;;;;;;8.46;96.22;100447.34;4699804;30;20112;-75
2022/04/06 00:24:21;;;;;;;58.83;18.83;;;;;;;8.52;96.53;100464.97;4699632;30;20116;-75
2022/04/06 00:26:46;;;;;;;55.42;17.67;;;;;;;8.34;96.41;100428.28;4699563;30;20072;-74
2022/04/06 00:29:11;;;;;;;55.47;17.85;;;;;;;8.48;96.38;100445.50;4699259;30;20141;-75
2022/04/06 00:31:37;;;;;;;50.97;16.98;;;;;;;8.50;96.32;100456.53;4699729;30;20034;-75
2022/04/06 00:34:02;;;;;;;56.13;17.00;;;;;;;8.30;96.51;100425.06;4699631;30;20068;-75
2022/04/06 00:36:28;;;;;;;57.83;17.88;;;;;;;8.47;96.44;100444.69;4699788;30;20368;-75
2022/04/06 00:38:53;;;;;;;57.90;17.20;;;;;;;8.29;96.48;100420.03;4699539;30;20490;-78
2022/04/06 00:41:19;;;;;;;50.03;16.08;;;;;;;8.46;96.39;100447.34;4698293;30;20091;-82
2022/04/06 00:43:44;;;;;;;50.78;17.10;;;;;;;8.32;96.17;100428.38;4684623;30;20471;-76
2022/04/06 00:46:10;;;;;;;46.92;15.18;;;;;;;7.75;95.99;100328.06;4702978;30;20034;-76
2022/04/06 00:48:35;;;;;;;57.38;16.50;;;;;;;8.26;96.23;100415.91;4703054;30;20433;-76
2022/04/06 00:51:01;;;;;;;58.78;18.23;;;;;;;8.45;95.83;100448.25;4703258;30;20052;-81
2022/04/06 00:53:27;;;;;;;53.40;14.88;;;;;;;8.23;95.97;100410.09;4702962;30;20371;-76
2022/04/06 00:55:52;;;;;;;50.08;17.00;;;;;;;8.44;96.05;100438.88;4703023;30;20045;-76
2022/04/06 00:58:18;;;;;;;55.50;15.75;;;;;;;8.29;96.14;100414.88;4702743;30;20037;-76
2022/04/06 01:00:43;;;;;;;56.47;15.30;;;;;;;7.99;95.98;100364.34;4702580;30;20037;-75
2022/04/06 01:03:10;;;;;;;56.55;15.68;;;;;;;8.40;96.03;100430.53;4702880;30;20029;-75
2022/04/06 01:05:35;;;;;;;47.80;16.80;;;;;;;8.29;96.20;100414.88;4702931;30;20049;-75
2022/04/06 01:08:01;;;;;;;62.47;17.02;;;;;;;8.22;96.00;100408.44;4702934;30;20475;-75
2022/04/06 01:10:27;;;;;;;51.22;15.30;;;;;;;7.82;96.21;100341.38;4702614;30;20136;-74
2022/04/06 01:12:54;;;;;;;49.35;14.10;;;;;;;8.25;95.99;100400.53;4702698;30;20049;-74
2022/04/06 01:15:20;;;;;;;48.80;15.30;;;;;;;8.20;95.81;100393.09;4702611;30;20048;-75
2022/04/06 01:17:45;;;;;;;43.90;12.52;;;;;;;8.37;95.97;100422.19;4702856;30;20026;-75
2022/04/06 01:20:12;;;;;;;51.50;14.20;;;;;;;8.27;96.03;100414.97;4702762;30;20521;-75
2022/04/06 01:22:38;;;;;;;61.63;16.45;;;;;;;8.32;95.74;100417.25;4702662;30;20037;-72
2022/04/06 01:25:05;;;;;;;47.03;13.82;;;;;;;8.33;95.57;100419.72;4702712;30;20044;-75
2022/04/06 01:27:31;;;;;;;45.60;13.18;;;;;;;8.11;95.53;100382.53;4702562;30;20124;-75
2022/04/06 01:29:56;;;;;;;49.38;13.02;;;;;;;8.03;95.45;100370.13;4702161;30;20116;-75
2022/04/06 01:32:25;;;;;;;51.92;13.52;;;;;;;8.17;95.60;100389.91;4702578;30;20407;-74
2022/04/06 01:34:53;;;;;;;44.50;12.23;;;;;;;8.07;95.73;100381.09;4702487;30;20104;-76
2022/04/06 01:37:18;;;;;;;46.75;14.05;;;;;;;7.96;95.69;100361.97;4702313;30;20037;-75
2022/04/06 01:39:46;;;;;;;42.60;12.93;;;;;;;8.03;95.50;100370.97;4702364;30;20030;-75
2022/04/06 01:42:15;;;;;;;55.78;13.73;;;;;;;7.99;95.18;100368.69;4702442;30;20099;-74
2022/04/06 01:44:44;;;;;;;45.90;13.60;;;;;;;7.98;95.21;100361.88;4702214;30;20049;-74
2022/04/06 01:47:10;;;;;;;50.00;13.45;;;;;;;8.29;95.18;100413.13;4686595;30;20511;-74
2022/04/06 01:52:20;;;;;;;46.58;13.40;;;;;;;8.24;94.74;100398.88;4702019;30;20048;-74
2022/04/06 01:54:55;;;;;;;47.58;11.68;;;;;;;8.23;94.49;100400.63;4701944;30;20539;-75
2022/04/06 01:57:21;;;;;;;51.67;13.20;;;;;;;8.27;94.60;100403.88;4701403;30;20030;-74
2022/04/06 01:59:47;;;;;;;45.95;11.07;;;;;;;8.25;94.59;100403.94;4702119;30;20038;-74
2022/04/06 02:02:15;;;;;;;43.35;12.25;;;;;;;8.24;94.62;100404.84;4701900;30;20030;-75
2022/04/06 02:04:41;;;;;;;56.35;12.80;;;;;;;8.07;94.47;100374.19;4702031;30;20502;-75
2022/04/06 02:07:09;;;;;;;41.58;11.13;;;;;;;8.21;94.37;100393.94;4701853;30;20038;-75
2022/04/06 02:09:36;;;;;;;34.97;10.25;;;;;;;8.21;93.96;100399.06;4701776;30;20104;-74
2022/04/06 02:12:02;;;;;;;42.60;10.23;;;;;;;8.01;94.08;100369.41;4701417;30;20472;-75
2022/04/06 02:14:27;;;;;;;40.58;10.10;;;;;;;7.94;93.91;100350.94;4701675;30;20080;-75
2022/04/06 02:16:53;;;;;;;36.97;9.77;;;;;;;8.21;93.89;100388.78;4701577;30;20034;-75
2022/04/06 02:19:18;;;;;;;33.65;10.30;;;;;;;8.20;93.87;100382.00;4701800;30;20398;-74
2022/04/06 02:21:44;;;;;;;39.97;10.40;;;;;;;8.21;93.64;100393.94;4701529;30;20465;-75
2022/04/06 02:24:10;;;;;;;47.55;10.25;;;;;;;8.20;93.66;100385.38;4699790;30;20392;-75
2022/04/06 02:26:35;;;;;;;38.85;9.98;;;;;;;7.96;93.22;100349.13;4701571;30;20113;-75
2022/04/06 02:29:01;;;;;;;32.40;9.30;;;;;;;8.07;93.15;100371.63;4701363;30;20117;-75
2022/04/06 02:31:27;;;;;;;48.42;11.65;;;;;;;8.10;92.74;100373.19;4701370;30;20107;-82
2022/04/06 02:33:53;;;;;;;32.40;9.57;;;;;;;8.09;92.88;100371.53;4701357;30;20053;-75
2022/04/06 02:36:18;;;;;;;40.78;10.63;;;;;;;8.06;92.67;100369.94;4701412;30;20487;-75
2022/04/06 02:38:45;;;;;;;32.30;9.43;;;;;;;7.89;92.55;100336.72;4700088;30;20189;-78
2022/04/06 02:41:10;;;;;;;30.42;8.13;;;;;;;7.85;92.51;100340.38;4701258;30;20040;-75
2022/04/06 02:43:36;;;;;;;41.15;9.65;;;;;;;8.07;92.66;100370.78;4701362;30;20030;-75
2022/04/06 02:46:02;;;;;;;34.13;8.90;;;;;;;8.06;92.56;100369.94;4701163;30;20474;-79
2022/04/06 02:48:27;;;;;;;33.63;8.82;;;;;;;7.87;92.32;100346.28;4700989;30;20052;-75
2022/04/06 02:50:53;;;;;;;28.38;9.20;;;;;;;7.88;92.18;100350.50;4701293;30;20475;-78
2022/04/06 02:53:18;;;;;;;39.35;8.93;;;;;;;7.91;92.36;100348.56;4701081;30;20041;-74
2022/04/06 02:55:43;;;;;;;30.23;9.43;;;;;;;7.79;92.13;100328.72;4701061;30;20037;-75
2022/04/06 02:58:09;;;;;;;31.02;9.15;;;;;;;7.93;92.06;100364.72;4700884;30;20025;-76
2022/04/06 03:00:35;;;;;;;27.15;7.60;;;;;;;7.90;92.29;100359.75;4701119;30;20034;-77
2022/04/06 03:03:02;;;;;;;35.00;9.43;;;;;;;7.62;92.34;100324.56;4685101;30;20045;-78
2022/04/06 03:05:27;;;;;;;31.05;8.90;;;;;;;7.82;92.42;100364.53;4700968;30;20778;-77
2022/04/06 03:07:52;;;;;;;35.33;9.13;;;;;;;7.56;92.61;100319.78;4700653;30;20037;-76
2022/04/06 03:10:18;;;;;;;45.30;9.10;;;;;;;7.64;92.42;100333.00;4700747;30;20041;-75
2022/04/06 03:12:43;;;;;;;30.67;9.20;;;;;;;7.68;91.91;100338.81;4700426;30;20060;-75
2022/04/06 03:15:09;;;;;;;33.55;8.85;;;;;;;7.63;92.17;100326.22;4700654;30;20037;-75
2022/04/06 03:17:35;;;;;;;35.55;8.43;;;;;;;7.64;92.35;100338.16;4700590;30;20038;-75
2022/04/06 03:20:02;;;;;;;31.73;9.30;;;;;;;7.63;92.06;100331.34;4700535;30;20446;-75
2022/04/06 03:22:28;;;;;;;36.65;8.90;;;;;;;7.73;92.04;100337.63;4700409;30;20033;-75
2022/04/06 03:24:54;;;;;;;25.40;7.38;;;;;;;7.72;92.17;100341.09;4700601;30;20041;-76
2022/04/06 03:27:19;;;;;;;34.53;8.85;;;;;;;7.61;91.59;100316.97;4700467;30;20069;-78
2022/04/06 03:29:45;;;;;;;36.08;7.90;;;;;;;7.73;91.22;100329.06;4700650;30;20124;-75
2022/04/06 03:32:10;;;;;;;33.70;7.47;;;;;;;7.72;91.44;100330.81;4700462;30;20487;-84
2022/04/06 03:34:36;;;;;;;23.92;6.90;;;;;;;7.58;91.19;100297.41;4700577;30;20471;-76
2022/04/06 03:37:02;;;;;;;28.02;7.55;;;;;;;7.70;91.18;100319.00;4700247;30;20123;-75
2022/04/06 03:39:27;;;;;;;31.55;8.15;;;;;;;7.70;90.76;100316.41;4700450;30;20045;-77
2022/04/06 03:41:53;;;;;;;30.30;6.85;;;;;;;7.57;90.21;100292.34;4700345;30;20065;-75
2022/04/06 03:44:18;;;;;;;28.10;7.45;;;;;;;7.64;90.09;100299.59;4698833;30;20450;-75
2022/04/06 03:46:43;;;;;;;23.70;6.53;;;;;;;7.38;90.22;100248.97;4700201;30;20061;-75
2022/04/06 03:49:09;;;;;;;24.60;7.10;;;;;;;7.75;89.84;100306.69;4700029;30;20128;-77
2022/04/06 03:51:35;;;;;;;29.48;7.50;;;;;;;7.69;89.93;100295.03;4700406;30;20061;-78
2022/04/06 03:54:00;;;;;;;31.70;6.90;;;;;;;7.78;89.41;100314.22;4700157;30;20042;-75
2022/04/06 03:56:26;;;;;;;28.58;8.40;;;;;;;7.76;89.11;100304.00;4700034;30;20034;-75
2022/04/06 03:58:52;;;;;;;27.35;7.22;;;;;;;7.79;88.74;100310.72;4684732;30;20046;-75
2022/04/06 04:01:17;;;;;;;25.50;6.80;;;;;;;7.79;88.87;100315.06;4700035;30;20029;-78
2022/04/06 04:03:43;;;;;;;28.65;6.38;;;;;;;7.75;88.26;100309.25;4699744;30;20045;-77
2022/04/06 04:06:08;;;;;;;23.48;6.35;;;;;;;7.56;88.34;100277.84;4700092;30;20036;-78
2022/04/06 04:08:33;;;;;;;22.67;6.45;;;;;;;7.44;88.09;100256.28;4699753;30;20041;-74
2022/04/06 04:10:59;;;;;;;26.80;5.68;;;;;;;7.78;88.09;100308.25;4699765;30;20062;-76
2022/04/06 04:13:24;;;;;;;23.60;5.95;;;;;;;7.15;87.12;100212.59;4699862;30;20076;-75
2022/04/06 04:15:49;;;;;;;21.02;5.75;;;;;;;7.81;87.24;100313.22;4684124;30;20113;-78
2022/04/06 04:18:15;;;;;;;23.92;5.85;;;;;;;7.59;87.01;100273.38;4699341;30;20061;-76
2022/04/06 04:20:41;;;;;;;22.88;5.15;;;;;;;7.69;86.57;100286.50;4699613;30;20044;-76
2022/04/06 04:23:07;;;;;;;18.00;5.18;;;;;;;7.65;86.43;100282.44;4699847;30;20088;-75
2022/04/06 04:25:33;;;;;;;21.85;5.25;;;;;;;7.58;86.00;100264.00;4699666;30;20033;-77
2022/04/06 04:27:58;;;;;;;23.25;6.18;;;;;;;7.73;86.30;100286.22;4699728;30;20044;-75
2022/04/06 04:30:23;;;;;;;26.45;5.38;;;;;;;7.55;86.36;100260.78;4698648;30;20053;-74
2022/04/06 04:32:49;;;;;;;20.73;5.50;;;;;;;7.80;86.76;100302.09;4699473;30;20041;-75
2022/04/06 04:35:14;;;;;;;20.52;5.53;;;;;;;7.82;85.79;100302.00;4699401;30;20079;-75
2022/04/06 04:37:39;;;;;;;26.10;5.28;;;;;;;7.82;86.27;100291.72;4699608;30;20029;-75
2022/04/06 04:40:06;;;;;;;15.98;5.40;;;;;;;7.84;86.20;100290.72;4699649;30;20056;-76
2022/04/06 04:42:31;;;;;;;25.08;6.20;;;;;;;7.77;86.16;100276.59;4699447;30;20045;-75
2022/04/06 04:44:57;;;;;;;28.25;7.50;;;;;;;7.79;86.61;100279.06;4699539;30;20037;-75
2022/04/06 04:47:22;;;;;;;24.80;6.57;;;;;;;7.85;86.90;100289.78;4699243;30;20475;-77
2022/04/06 04:49:47;;;;;;;31.00;8.60;;;;;;;7.86;87.02;100288.03;4699377;30;20041;-75
2022/04/06 04:52:13;;;;;;;24.73;7.18;;;;;;;7.72;87.32;100255.47;4699487;30;20479;-77
2022/04/06 04:54:38;;;;;;;22.70;5.97;;;;;;;7.68;87.43;100256.59;4699771;30;20037;-75
2022/04/06 04:57:04;;;;;;;24.63;5.45;;;;;;;7.81;87.89;100269.50;4699476;30;20038;-76
2022/04/06 04:59:29;;;;;;;29.60;7.20;;;;;;;7.56;87.58;100232.41;4683360;30;20053;-75
2022/04/06 05:01:54;;;;;;;25.58;7.10;;;;;;;7.86;88.40;100270.03;4699165;30;20061;-76
2022/04/06 05:04:20;;;;;;;26.92;8.73;;;;;;;7.69;88.37;100253.09;4699133;30;20044;-74
2022/04/06 05:06:45;;;;;;;29.52;8.18;;;;;;;7.87;88.74;100276.88;4699260;30;20044;-75
2022/04/06 05:09:10;;;;;;;30.60;8.52;;;;;;;7.79;88.93;100261.06;4699256;30;20044;-75
2022/04/06 05:11:36;;;;;;;37.22;9.63;;;;;;;7.49;89.32;100210.59;4699119;30;20460;-75
2022/04/06 05:14:02;;;;;;;32.40;9.63;;;;;;;7.56;89.23;100214.44;4699083;30;20523;-77
2022/04/06 05:16:27;;;;;;;32.60;9.25;;;;;;;7.87;89.63;100253.72;4699262;30;20034;-75
2022/04/06 05:18:54;;;;;;;34.85;9.82;;;;;;;7.90;89.47;100266.38;4699145;30;20098;-74
2022/04/06 05:21:19;;;;;;;25.15;8.82;;;;;;;7.08;89.60;100128.31;4699156;30;20064;-74
2022/04/06 05:23:45;;;;;;;34.22;10.40;;;;;;;7.90;89.59;100256.94;4699050;30;20030;-78
2022/04/06 05:26:10;;;;;;;29.33;10.70;;;;;;;7.92;89.61;100262.78;4697591;30;20042;-74
2022/04/06 05:28:35;;;;;;;30.08;8.75;;;;;;;7.84;89.44;100254.72;4699006;30;20399;-74
2022/04/06 05:31:01;;;;;;;32.60;9.32;;;;;;;7.91;89.65;100252.63;4701666;30;20042;-74
2022/04/06 05:33:26;;;;;;;30.80;9.38;;;;;;;7.95;89.81;100244.59;4702224;30;20175;-75
2022/04/06 05:35:51;;;;;;;31.38;8.93;;;;;;;7.96;89.62;100251.41;4702198;30;20087;-73
2022/04/06 05:38:16;;;;;;;34.42;9.02;;;;;;;7.94;89.82;100244.69;4702317;30;20045;-73
2022/04/06 05:40:42;;;;;;;30.58;8.43;;;;;;;7.99;89.18;100242.69;4702201;30;20046;-74
2022/04/06 05:43:07;;;;;;;34.42;9.63;;;;;;;8.01;89.25;100244.25;4702252;30;20037;-73
2022/04/06 05:45:33;;;;;;;31.05;8.80;;;;;;;8.03;88.57;100247.53;4702362;30;20111;-74
2022/04/06 05:47:58;;;;;;;31.70;9.20;;;;;;;7.83;88.30;100217.09;4702118;30;20121;-74
2022/04/06 05:50:23;;;;;;;27.33;8.48;;;;;;;8.06;88.38;100246.50;4701809;30;20044;-74
2022/04/06 05:52:49;;;;;;;29.92;7.85;;;;;;;8.07;88.25;100248.19;4702081;30;20476;-74
2022/04/06 05:55:14;;;;;;;25.95;6.90;;;;;;;8.08;88.08;100243.88;4701949;30;20378;-73
2022/04/06 05:57:40;;;;;;;24.65;7.15;;;;;;;7.94;87.79;100226.72;4701904;30;20029;-74
2022/04/06 06:00:08;;;;;;;28.80;6.50;;;;;;;8.02;87.33;100233.03;4702083;30;20030;-74
2022/04/06 06:02:34;;;;;;;26.05;6.20;;;;;;;8.03;86.74;100237.25;4701957;30;20037;-74
2022/04/06 06:04:59;;;;;;;22.38;7.45;;;;;;;8.12;86.59;100241.00;4701642;30;20064;-74
2022/04/06 06:07:24;;;;;;;22.42;6.43;;;;;;;8.20;86.36;100249.06;4701836;30;20057;-74
2022/04/06 06:09:50;;;;;;;17.48;4.82;;;;;;;8.05;85.73;100219.97;4700407;30;20491;-71
2022/04/06 06:12:15;;;;;;;25.48;7.32;;;;;;;7.99;85.55;100199.81;4702171;30;20061;-72
2022/04/06 06:14:41;;;;;;;24.33;5.82;;;;;;;7.94;84.99;100188.13;4702046;30;20092;-76
2022/04/06 06:17:06;;;;;;;16.60;5.38;;;;;;;8.14;84.45;100212.63;4700190;30;20466;-74
2022/04/06 06:19:32;;;;;;;19.67;6.00;;;;;;;8.39;84.34;100250.53;4685773;30;20045;-76
2022/04/06 06:21:57;;;;;;;19.85;5.47;;;;;;;8.33;83.97;100243.97;4700139;30;20040;-77
2022/04/06 06:24:24;;;;;;;17.42;4.82;;;;;;;8.37;83.56;100242.91;4701714;30;20033;-79
2022/04/06 06:26:50;;;;;;;21.70;4.80;;;;;;;8.17;82.49;100215.00;4701757;30;20037;-77
2022/04/06 06:29:16;;;;;;;19.27;5.00;;;;;;;8.41;82.38;100248.69;4699238;30;20418;-77
2022/04/06 06:31:41;;;;;;;18.42;5.22;;;;;;;8.43;81.54;100247.66;4701421;30;20041;-76
2022/04/06 06:34:06;;;;;;;25.27;5.53;;;;;;;8.44;80.78;100251.03;4701819;30;20053;-78
2022/04/06 06:36:32;;;;;;;15.32;5.53;;;;;;;8.46;80.31;100242.34;4701097;30;20038;-79
2022/04/06 06:38:57;;;;;;;15.30;4.97;;;;;;;8.17;79.41;100192.69;4701641;30;20034;-77
2022/04/06 06:41:24;;;;;;;21.27;5.88;;;;;;;8.07;79.63;100177.94;4701090;30;20041;-82
2022/04/06 06:43:50;;;;;;;14.10;4.78;;;;;;;8.51;78.16;100237.69;4701530;30;20402;-78
2022/04/06 06:46:19;;;;;;;14.60;4.30;;;;;;;8.43;77.38;100223.66;4701317;30;20033;-80
2022/04/06 06:48:45;;;;;;;12.27;4.72;;;;;;;8.26;75.98;100178.44;4701331;30;20037;-77
2022/04/06 06:51:14;;;;;;;10.98;3.90;;;;;;;8.56;75.63;100222.81;4701102;30;20036;-78
2022/04/06 06:53:43;;;;;;;14.15;4.28;;;;;;;8.72;75.21;100232.91;4701257;30;20026;-77
2022/04/06 06:56:09;;;;;;;20.67;4.22;;;;;;;8.80;74.80;100232.44;4701466;30;20033;-83
2022/04/06 06:58:35;;;;;;;15.05;4.22;;;;;;;8.88;75.00;100237.91;4701199;30;20506;-80
2022/04/06 07:01:00;;;;;;;9.18;3.35;;;;;;;8.91;74.01;100230.81;4701359;30;20045;-82
2022/04/06 07:03:28;;;;;;;12.63;3.67;;;;;;;8.59;73.73;100178.03;4703286;30;20403;-74
2022/04/06 07:05:53;;;;;;;13.65;3.22;;;;;;;8.89;73.71;100224.94;4700328;30;20069;-79
2022/04/06 07:08:20;;;;;;;9.02;2.88;;;;;;;8.82;74.50;100212.56;4700729;30;20037;-80
2022/04/06 07:10:46;;;;;;;10.80;2.70;;;;;;;8.95;74.04;100235.75;4700678;30;20121;-78
2022/04/06 07:13:13;;;;;;;11.77;3.30;;;;;;;8.93;74.01;100222.16;4701017;30;20132;-78
2022/04/06 07:15:41;;;;;;;11.55;3.47;;;;;;;8.82;73.33;100207.41;4700927;30;20090;-76
2022/04/06 07:18:08;;;;;;;11.13;3.35;;;;;;;8.96;73.59;100232.25;4700672;30;20098;-76
2022/04/06 07:20:35;;;;;;;11.90;3.15;;;;;;;8.61;73.75;100166.69;4700599;30;20037;-79
2022/04/06 07:23:04;;;;;;;12.10;3.17;;;;;;;8.95;72.87;100204.84;4700690;30;20072;-74
2022/04/06 07:25:33;;;;;;;12.48;3.17;;;;;;;9.03;73.20;100223.19;4700581;30;20171;-76
2022/04/06 07:28:00;;;;;;;10.48;3.03;;;;;;;9.05;74.18;100221.34;4700673;30;20040;-75
2022/04/06 07:30:25;;;;;;;16.02;2.92;;;;;;;8.93;72.93;100181.78;4700529;30;20033;-74
2022/04/06 07:32:51;;;;;;;12.93;2.97;;;;;;;9.16;73.92;100213.75;4700525;30;20044;-76
2022/04/06 07:35:17;;;;;;;10.38;2.80;;;;;;;9.18;73.98;100199.00;4700360;30;20033;-77
2022/04/06 07:37:45;;;;;;;9.57;2.75;;;;;;;9.13;73.79;100189.00;4684473;30;20041;-75
2022/04/06 07:40:13;;;;;;;13.43;3.30;;;;;;;9.11;73.45;100187.44;4700579;30;20033;-77
2022/04/06 07:42:39;;;;;;;13.90;2.55;;;;;;;9.18;73.78;100197.25;4685021;30;20034;-77
2022/04/06 07:45:07;;;;;;;12.15;2.85;;;;;;;9.10;74.27;100171.19;4698699;30;20153;-77
2022/04/06 07:47:32;;;;;;;14.05;3.55;;;;;;;9.32;74.76;100183.41;4700168;30;20034;-77
2022/04/06 07:49:58;;;;;;;21.52;3.90;;;;;;;9.47;74.25;100177.22;4699880;30;20049;-76
2022/04/06 07:52:25;;;;;;;12.63;3.70;;;;;;;9.37;74.96;100145.28;4700147;30;20399;-77
2022/04/06 07:54:50;;;;;;;13.07;4.05;;;;;;;9.59;75.30;100154.94;4698097;30;20060;-76
2022/04/06 07:57:16;;;;;;;14.35;4.63;;;;;;;9.87;74.53;100165.91;4700205;30;20037;-76
2022/04/06 07:59:41;;;;;;;12.75;4.47;;;;;;;10.03;74.69;100162.13;4700248;30;20045;-77
2022/04/06 08:02:09;;;;;;;14.73;4.63;;;;;;;9.97;74.66;100149.66;4699956;30;20037;-79
2022/04/06 08:04:37;;;;;;;17.75;4.22;;;;;;;9.87;75.26;100151.25;4700034;30;20034;-78
2022/04/06 08:07:03;;;;;;;12.25;4.47;;;;;;;9.54;75.16;100130.41;4699960;30;20041;-76
2022/04/06 08:09:34;;;;;;;19.60;4.80;;;;;;;9.36;76.84;100123.03;4699933;30;20041;-77
2022/04/06 08:12:01;;;;;;;17.17;5.28;;;;;;;9.64;77.13;100183.00;4699915;30;20050;-76
2022/04/06 08:14:27;;;;;;;17.65;5.35;;;;;;;9.23;77.05;100136.84;4700019;30;20033;-83
2022/04/06 08:16:55;;;;;;;15.77;5.15;;;;;;;9.31;78.04;100174.03;4699671;30;20607;-75
2022/04/06 08:19:24;;;;;;;17.05;5.75;;;;;;;9.08;78.05;100149.03;4698082;30;20045;-78
2022/04/06 08:21:51;;;;;;;13.85;5.18;;;;;;;9.30;78.01;100181.88;4699890;30;20041;-78
2022/04/06 08:24:17;;;;;;;21.73;5.97;;;;;;;9.28;78.11;100186.31;4699779;30;20108;-77
2022/04/06 08:26:42;;;;;;;21.42;5.97;;;;;;;9.30;78.50;100181.88;4699953;30;20112;-77
2022/04/06 08:29:08;;;;;;;16.70;5.55;;;;;;;9.41;78.74;100187.94;4699770;30;20037;-78
2022/04/06 08:31:33;;;;;;;15.45;5.05;;;;;;;9.53;78.20;100185.47;4699737;30;20025;-77
2022/04/06 08:33:59;;;;;;;15.30;5.05;;;;;;;8.89;77.98;100077.34;4699694;30;20501;-77
2022/04/06 08:36:31;;;;;;;16.25;4.88;;;;;;;9.41;78.40;100144.16;4684217;30;20731;-81
2022/04/06 08:39:01;;;;;;;19.55;5.55;;;;;;;9.46;77.64;100165.28;4699529;30;20136;-78
2022/04/06 08:41:28;;;;;;;20.98;5.50;;;;;;;9.30;77.91;100149.22;4684188;30;20040;-76
2022/04/06 08:43:55;;;;;;;19.95;5.43;;;;;;;9.53;77.67;100168.25;4699698;30;20029;-79
2022/04/06 08:46:21;;;;;;;23.25;6.28;;;;;;;9.70;77.74;100167.91;4699530;30;20117;-76
2022/04/06 08:51:22;;;;;;;14.65;4.85;;;;;;;9.47;76.32;100105.06;4678668;25;20071;-75
2022/04/06 08:54:04;;;;;;;17.50;5.32;;;;;;;9.00;76.77;100025.09;4665070;30;20384;-77
2022/04/06 08:57:19;;;;;;;18.60;5.53;;;;;;;9.94;77.01;100170.53;4665039;30;20038;-78
2022/04/06 09:00:00;;;;;;;13.25;5.00;;;;;;;8.89;76.56;100006.06;4663616;30;20423;-78
2022/04/06 09:02:40;;;;;;;17.07;5.27;;;;;;;9.63;77.54;100134.91;4665301;30;20062;-80
2022/04/06 09:05:12;;;;;;;21.50;5.18;;;;;;;8.88;77.68;100017.31;4666253;30;20291;-81
2022/04/06 09:07:39;;;;;;;16.17;5.40;;;;;;;9.81;78.18;100179.22;4668287;30;20493;-75
2022/04/06 09:10:08;;;;;;;14.38;5.80;;;;;;;9.58;78.78;100163.59;4666973;30;20048;-78
2022/04/06 09:12:33;;;;;;;16.83;6.55;;;;;;;9.73;79.80;100174.59;4668413;30;20046;-78
2022/04/06 09:15:10;;;;;;;17.63;6.38;;;;;;;9.79;81.33;100171.59;4652788;30;20057;-78
2022/04/06 09:17:48;;;;;;;18.83;6.15;;;;;;;9.79;81.35;100176.75;4668438;30;20038;-79
2022/04/06 09:20:14;;;;;;;15.68;5.47;;;;;;;9.70;81.32;100175.63;4652991;30;20073;-78
2022/04/06 09:22:41;;;;;;;15.32;6.32;;;;;;;9.36;82.50;100135.91;4668349;30;20791;-79
2022/04/06 09:25:10;;;;;;;17.40;6.22;;;;;;;9.60;83.07;100173.81;4668371;30;20185;-78
2022/04/06 09:27:40;;;;;;;14.32;6.00;;;;;;;9.53;83.26;100160.50;4668091;30;20038;-79
2022/04/06 09:30:07;;;;;;;17.67;6.88;;;;;;;9.43;82.30;100141.44;4668214;30;20117;-80
2022/04/06 09:32:33;;;;;;;15.93;6.45;;;;;;;9.27;82.03;100128.00;4668076;30;20034;-78
2022/04/06 09:34:58;;;;;;;17.02;6.28;;;;;;;9.55;82.03;100173.31;4668117;30;20495;-79
2022/04/06 09:37:28;;;;;;;21.80;6.28;;;;;;;9.49;81.86;100165.06;4667982;30;20045;-77
2022/04/06 09:39:56;;;;;;;16.55;5.90;;;;;;;9.39;81.89;100133.13;4668122;30;20400;-78
2022/04/06 09:42:28;;;;;;;21.33;6.30;;;;;;;9.51;81.69;100135.78;4652101;30;20039;-79
2022/04/06 09:47:54;;;;;;;16.40;5.85;;;;;;;9.76;81.75;100166.66;4667855;30;20082;-77
2022/04/06 09:50:30;;;;;;;19.05;6.13;;;;;;;9.64;82.59;100139.16;4666126;30;20054;-80
2022/04/06 09:53:00;;;;;;;15.23;6.95;;;;;;;9.65;82.64;100136.47;4666403;30;20038;-78
2022/04/06 09:55:26;;;;;;;11.95;6.32;;;;;;;9.74;82.35;100171.09;4667593;30;20400;-79
2022/04/06 09:57:55;;;;;;;15.73;6.38;;;;;;;9.41;82.81;100117.56;4667776;30;20030;-79
2022/04/06 10:00:29;;;;;;;17.77;6.50;;;;;;;9.63;83.64;100138.31;4667431;30;20038;-79
2022/04/06 10:03:12;;;;;;;16.98;6.35;;;;;;;9.85;83.14;100160.03;4667950;30;20125;-79
2022/04/06 10:05:39;;;;;;;15.15;5.97;;;;;;;9.68;83.24;100140.59;4667623;30;20069;-78
2022/04/06 10:08:10;;;;;;;19.95;6.80;;;;;;;9.59;82.94;100136.91;4665926;30;20050;-79
2022/04/06 10:10:38;;;;;;;18.10;6.73;;;;;;;9.69;82.29;100153.38;4666619;30;20057;-78
2022/04/06 10:13:10;;;;;;;18.77;7.00;;;;;;;9.63;83.01;100146.03;4667637;30;20403;-76
2022/04/06 10:16:46;;;;;;;;;;;;;;;;;;;;;
2022/04/06 10:19:56;;;;;;;18.58;7.00;;;;;;;9.53;84.87;100150.19;4614631;31;20062;-78
2022/04/06 10:27:35;;;;;;;21.48;7.53;;;;;;;9.51;86.24;100152.06;4713024;25;20061;-81
2022/04/06 10:30:09;;;;;;;16.48;7.30;;;;;;;9.54;85.88;100151.88;4701484;30;20470;-79
2022/04/06 10:33:15;;;;;;;19.67;7.22;;;;;;;9.64;86.19;100149.47;4701610;30;20104;-79
2022/04/06 10:42:59;;;;;;;14.13;6.43;;;;;;;8.49;86.02;99973.69;4624127;30;20039;-82
2022/04/06 10:45:45;;;;;;;13.85;6.68;;;;;;;8.60;86.06;99981.50;4648200;30;20074;-79
2022/04/06 10:51:41;;;;;;;15.20;5.97;;;;;;;9.13;85.68;100078.22;4618734;30;20077;-85
2022/04/06 11:01:45;;;;;;;16.80;6.53;;;;;;;9.84;85.03;100120.53;4648203;30;20105;-80
2022/04/06 11:04:35;;;;;;;19.08;7.03;;;;;;;8.86;83.82;99959.13;4647577;30;20508;-79
2022/04/06 11:10:32;;;;;;;23.63;6.78;;;;;;;8.94;82.14;99956.00;4964729;25;20061;-80
2022/04/06 11:13:26;;;;;;;15.30;5.85;;;;;;;9.97;82.08;100116.13;4700983;30;20034;-82
2022/04/06 11:16:42;;;;;;;;;;;;;;;;;;;;;
2022/04/06 11:23:20;;;;;;;14.57;5.50;;;;;;;10.11;80.66;100109.16;4701128;30;20037;-82
2022/04/06 11:26:19;;;;;;;16.40;6.38;;;;;;;10.09;80.85;100093.78;4647189;30;20046;-82
2022/04/06 11:39:20;;;;;;;18.30;6.18;;;;;;;10.04;80.31;100085.56;4629271;31;20433;-75
2022/04/06 11:42:17;;;;;;;18.58;6.50;;;;;;;10.01;79.86;100093.50;4616410;31;20043;-80
2022/04/06 11:48:15;;;;;;;13.57;6.03;;;;;;;9.59;80.42;99992.53;4665791;30;20196;-78
2022/04/06 11:54:46;;;;;;;17.27;6.55;;;;;;;10.46;79.18;100073.88;4666030;30;20081;-81
2022/04/06 12:07:54;;;;;;;11.52;5.45;;;;;;;9.31;77.78;99882.91;4665976;30;19985;-81
2022/04/06 12:13:44;;;;;;;12.02;5.82;;;;;;;9.75;77.83;99944.09;4665576;30;20089;-81
2022/04/06 12:16:10;;;;;;;11.38;6.38;;;;;;;9.62;77.26;99916.75;4665635;30;20057;-79
2022/04/06 12:18:59;;;;;;;14.85;6.00;;;;;;;10.43;77.72;100042.31;4665770;30;20027;-81
2022/04/06 12:21:29;;;;;;;17.67;6.03;;;;;;;9.77;77.46;99928.50;4664368;30;20381;-81
2022/04/06 12:23:55;;;;;;;13.65;6.20;;;;;;;10.50;77.42;100038.31;4665681;30;20062;-82
2022/04/06 12:26:24;;;;;;;12.70;6.43;;;;;;;10.46;77.34;100021.44;4665479;30;20167;-81
2022/04/06 12:28:58;;;;;;;19.08;7.75;;;;;;;10.25;76.93;99995.47;4665154;30;20030;-81
2022/04/06 12:31:34;;;;;;;13.15;6.43;;;;;;;10.23;77.13;99989.63;4649591;30;20042;-80
2022/04/06 12:34:00;;;;;;;13.68;6.30;;;;;;;10.54;77.03;100019.94;4665648;30;20031;-81
2022/04/06 12:36:27;;;;;;;12.88;6.50;;;;;;;10.50;76.37;100004.78;4650036;30;20052;-81
2022/04/06 12:39:13;;;;;;;14.35;6.10;;;;;;;10.57;77.79;100014.53;4665529;30;20042;-81
2022/04/06 12:42:06;;;;;;;14.90;6.50;;;;;;;10.53;76.77;100007.97;4665024;30;20458;-81